This is the latest recevied weather packets stored in our database for station/object N2UGS-WX. If no packets are shown the sender has not sent any weather packets the latest 10 day(s).
| Time | Temp. | Humidity | Pressure | Rain* | Wind** | Luminosity | Snow |
|---|---|---|---|---|---|---|---|
| 1778182502 | 13.89° C | 47% | 1011.2 hPa | 0 mm | - | - | - |
| 1778181602 | 13.89° C | 47% | 1011.2 hPa | 0 mm | - | - | - |
| 1778180942 | 12.22° C | 50% | 1011.5 hPa | 0 mm | - | - | - |
| 1778180103 | 10.56° C | 55% | 1011.9 hPa | 0 mm | - | - | - |
| 1778179502 | 10° C | 57% | 1011.9 hPa | 0 mm | - | - | - |
| 1778178601 | 10° C | 59% | 1011.5 hPa | 0 mm | - | - | - |
| 1778177702 | 11.11° C | 54% | 1011.5 hPa | 0 mm | - | - | - |
| 1778176742 | 11.11° C | 52% | 1011.5 hPa | 0 mm | - | - | - |
| 1778175902 | 12.22° C | 49% | 1011.5 hPa | 0 mm | - | - | - |
| 1778175242 | 13.89° C | 43% | 1011.5 hPa | 0 mm | - | - | - |
| 1778174403 | 13.89° C | 44% | 1011.5 hPa | 0 mm | - | - | - |
| 1778173502 | 14.44° C | 42% | 1011.5 hPa | 0 mm | - | - | - |
| 1778172602 | 15° C | 41% | 1011.9 hPa | 0 mm | - | - | - |
| 1778171701 | 15° C | 45% | 1011.9 hPa | 0 mm | - | - | - |
| 1778170803 | 13.89° C | 42% | 1012.2 hPa | 0 mm | - | - | - |
| 1778169903 | 13.89° C | 46% | 1012.2 hPa | 0 mm | - | - | - |
| 1778169302 | 12.78° C | 45% | 1012.2 hPa | 0 mm | - | - | - |
| 1778168402 | 13.33° C | 46% | 1012.5 hPa | 0 mm | - | - | - |
| 1778167502 | 12.22° C | 49% | 1012.5 hPa | 0 mm | - | - | - |
| 1778166602 | 11.67° C | 47% | 1012.5 hPa | 0 mm | - | - | - |
| 1778165703 | 11.67° C | 53% | 1012.5 hPa | 0 mm | - | - | - |
| 1778165043 | 11.67° C | 54% | 1012.9 hPa | 0 mm | - | - | - |
| 1778164442 | 11.11° C | 56% | 1012.9 hPa | 0 mm | - | - | - |
| 1778163542 | 11.67° C | 57% | 1012.9 hPa | 0 mm | - | - | - |
| 1778162642 | 10.56° C | 57% | 1012.9 hPa | 0 mm | - | - | - |
* Rain latest hour (hover to see other rain measurements)
** Current wind speed in m/s (hover to see current wind gust speed)